Time;durP1;ratioP1;P1;durP2;ratioP2;P2;SDS_P1;SDS_P2;PMS_P1;PMS_P2;Temp;Humidity;BMP_temperature;BMP_pressure;BME280_temperature;BME280_humidity;BME280_pressure;Samples;Min_cycle;Max_cycle;Signal;HPM_P1;HPM_P2
2023/03/10 00:00:04;;;;;;;1.02;0.98;;;16.60;51.60;;;;;;5134183;27;20180;-56
2023/03/10 00:02:32;;;;;;;0.90;0.90;;;16.50;51.50;;;;;;5132851;27;20223;-55
2023/03/10 00:04:57;;;;;;;1.60;1.10;;;16.50;51.60;;;;;;5133979;27;20216;-56
2023/03/10 00:07:23;;;;;;;1.30;1.20;;;16.50;51.60;;;;;;5134459;27;20196;-56
2023/03/10 00:09:48;;;;;;;3.42;1.35;;;16.50;51.60;;;;;;5133127;27;20257;-54
2023/03/10 00:12:14;;;;;;;1.00;1.00;;;16.40;51.50;;;;;;5134174;27;20172;-54
2023/03/10 00:14:39;;;;;;;0.95;0.95;;;16.40;51.50;;;;;;5134164;27;20179;-54
2023/03/10 00:17:05;;;;;;;1.08;1.08;;;16.40;51.50;;;;;;5133323;27;20195;-55
2023/03/10 00:19:31;;;;;;;1.02;1.02;;;16.40;51.50;;;;;;5133933;27;20183;-54
2023/03/10 00:21:56;;;;;;;0.80;0.80;;;16.30;51.50;;;;;;5133503;27;20212;-54
2023/03/10 00:24:22;;;;;;;1.00;0.90;;;16.40;51.60;;;;;;5133189;27;20259;-54
2023/03/10 00:26:50;;;;;;;0.90;0.90;;;16.30;51.50;;;;;;5133832;27;20173;-54
2023/03/10 00:29:16;;;;;;;1.15;1.08;;;16.30;51.60;;;;;;5133792;27;20222;-57
2023/03/10 00:31:42;;;;;;;1.30;1.20;;;16.30;51.60;;;;;;5132799;27;20257;-54
2023/03/10 00:34:07;;;;;;;0.80;0.80;;;16.20;51.50;;;;;;5133777;27;20179;-53
2023/03/10 00:36:33;;;;;;;1.15;0.93;;;16.20;51.60;;;;;;5133398;27;20183;-54
2023/03/10 00:38:59;;;;;;;1.35;1.25;;;16.20;51.60;;;;;;5133621;27;20169;-51
2023/03/10 00:41:27;;;;;;;0.80;0.80;;;16.30;51.70;;;;;;5133755;27;20522;-55
2023/03/10 00:43:52;;;;;;;0.88;0.88;;;16.20;51.60;;;;;;5132577;27;20211;-56
2023/03/10 00:46:18;;;;;;;0.75;0.75;;;16.20;51.60;;;;;;5133604;27;20252;-51
2023/03/10 00:48:43;;;;;;;1.42;0.82;;;16.20;51.60;;;;;;5133168;27;20168;-52
2023/03/10 00:51:09;;;;;;;0.85;0.85;;;16.20;51.50;;;;;;5132644;27;20172;-55
2023/03/10 00:53:36;;;;;;;1.00;1.00;;;16.20;51.60;;;;;;5133422;27;20172;-54
2023/03/10 00:56:12;;;;;;;2.25;1.13;;;16.20;51.60;;;;;;5133351;27;20184;-52
2023/03/10 00:58:37;;;;;;;0.95;0.90;;;16.20;51.60;;;;;;5132784;27;20203;-51
2023/03/10 01:01:03;;;;;;;0.85;0.85;;;16.10;51.60;;;;;;5133049;27;20199;-55
2023/03/10 01:03:29;;;;;;;1.67;1.00;;;16.10;51.60;;;;;;5133394;27;20212;-53
2023/03/10 01:05:55;;;;;;;0.80;0.80;;;16.10;51.60;;;;;;5132220;27;20172;-53
2023/03/10 01:08:20;;;;;;;0.90;0.90;;;16.10;51.60;;;;;;5133368;27;20263;-50
2023/03/10 01:10:46;;;;;;;0.98;0.93;;;16.10;51.60;;;;;;5132991;27;20640;-54
2023/03/10 01:13:12;;;;;;;1.95;0.90;;;16.10;51.60;;;;;;5132393;27;20537;-50
2023/03/10 01:15:38;;;;;;;1.00;0.90;;;16.10;51.60;;;;;;5133172;27;20575;-51
2023/03/10 01:18:04;;;;;;;2.25;0.90;;;16.00;51.60;;;;;;5133037;27;20172;-54
2023/03/10 01:20:30;;;;;;;0.98;0.95;;;16.00;51.60;;;;;;5132679;28;20175;-53
2023/03/10 01:22:56;;;;;;;0.70;0.70;;;16.00;51.50;;;;;;5132666;27;20271;-52
2023/03/10 01:25:21;;;;;;;1.13;0.80;;;16.00;51.60;;;;;;5133373;28;20196;-53
2023/03/10 01:27:47;;;;;;;1.05;0.80;;;16.00;51.60;;;;;;5132110;28;20180;-54
2023/03/10 01:30:12;;;;;;;0.77;0.77;;;16.00;51.60;;;;;;5132980;28;20172;-49
2023/03/10 01:32:39;;;;;;;0.70;0.70;;;16.00;51.60;;;;;;5132706;28;20174;-55
2023/03/10 01:35:05;;;;;;;1.00;0.88;;;16.00;51.60;;;;;;5132778;27;20207;-53
2023/03/10 01:37:31;;;;;;;1.83;0.70;;;16.00;51.60;;;;;;5133048;27;20204;-52
2023/03/10 01:39:56;;;;;;;0.80;0.80;;;16.00;51.70;;;;;;5132187;28;20164;-51
2023/03/10 01:42:22;;;;;;;1.05;0.98;;;15.90;51.60;;;;;;5132994;28;20565;-55
2023/03/10 01:45:09;;;;;;;0.73;0.73;;;15.90;51.60;;;;;;5132559;28;20545;-52
2023/03/10 01:47:35;;;;;;;0.85;0.85;;;15.90;51.60;;;;;;5132028;27;20176;-54
2023/03/10 01:50:01;;;;;;;0.82;0.80;;;15.90;51.60;;;;;;5132512;28;20181;-52
2023/03/10 01:52:29;;;;;;;0.95;0.90;;;15.90;52.30;;;;;;5131849;28;20172;-51
2023/03/10 01:55:13;;;;;;;0.60;0.60;;;15.90;51.70;;;;;;5131832;27;20184;-50
2023/03/10 01:57:45;;;;;;;0.73;0.65;;;15.90;51.60;;;;;;5131591;28;20168;-53
2023/03/10 02:00:11;;;;;;;0.70;0.70;;;15.90;51.60;;;;;;5131483;28;20592;-52
2023/03/10 02:02:41;;;;;;;0.80;0.80;;;15.90;51.70;;;;;;5132182;28;20212;-54
2023/03/10 02:05:07;;;;;;;0.60;0.60;;;15.90;51.70;;;;;;5115821;28;20240;-55
2023/03/10 02:07:32;;;;;;;0.60;0.60;;;15.90;51.70;;;;;;5115314;28;20263;-54
2023/03/10 02:09:58;;;;;;;0.63;0.60;;;15.90;51.70;;;;;;5130953;28;20638;-50
2023/03/10 02:12:23;;;;;;;0.60;0.60;;;15.80;51.60;;;;;;5133172;28;20534;-50
2023/03/10 02:14:49;;;;;;;0.93;0.80;;;15.80;51.60;;;;;;5133088;28;20679;-54
2023/03/10 02:17:16;;;;;;;0.70;0.70;;;15.80;51.60;;;;;;5114296;28;20198;-49
2023/03/10 02:20:11;;;;;;;0.60;0.60;;;15.80;51.60;;;;;;5133119;27;20260;-54
2023/03/10 02:22:37;;;;;;;0.75;0.75;;;15.80;51.60;;;;;;5131097;28;20287;-52
2023/03/10 02:25:29;;;;;;;0.77;0.60;;;15.80;51.60;;;;;;5133829;27;20226;-52
2023/03/10 02:27:55;;;;;;;0.65;0.65;;;15.80;51.60;;;;;;5136604;27;20172;-50
2023/03/10 02:30:31;;;;;;;0.90;0.90;;;15.80;51.60;;;;;;5135991;27;20177;-51
2023/03/10 02:32:59;;;;;;;0.73;0.73;;;15.70;51.60;;;;;;5119093;27;20172;-50
2023/03/10 02:35:24;;;;;;;0.68;0.68;;;15.70;51.60;;;;;;5136952;27;20180;-55
2023/03/10 02:37:50;;;;;;;0.90;0.90;;;15.70;51.60;;;;;;5135957;27;20289;-54
2023/03/10 02:40:24;;;;;;;0.55;0.55;;;15.70;51.60;;;;;;5136691;27;20571;-52
2023/03/10 02:42:49;;;;;;;0.60;0.60;;;15.70;51.60;;;;;;5136040;27;20291;-53
2023/03/10 02:45:15;;;;;;;0.80;0.80;;;15.70;51.70;;;;;;5135727;27;20272;-50
2023/03/10 02:47:40;;;;;;;0.80;0.80;;;15.70;51.70;;;;;;5135187;27;20606;-53
2023/03/10 02:50:07;;;;;;;0.80;0.80;;;15.70;51.60;;;;;;5135185;27;20183;-49
2023/03/10 02:52:39;;;;;;;0.80;0.80;;;15.70;51.70;;;;;;5135241;27;20255;-55
2023/03/10 02:55:04;;;;;;;0.60;0.60;;;15.70;51.60;;;;;;5117909;27;20177;-53
2023/03/10 02:57:30;;;;;;;0.50;0.50;;;15.60;51.60;;;;;;5135422;27;20184;-50
2023/03/10 02:59:55;;;;;;;0.60;0.60;;;15.70;51.70;;;;;;5135866;27;20182;-54
2023/03/10 03:02:21;;;;;;;0.60;0.60;;;15.60;51.70;;;;;;5135950;27;20295;-54
2023/03/10 03:04:46;;;;;;;0.70;0.70;;;15.70;51.70;;;;;;5135290;27;20263;-54
2023/03/10 03:07:12;;;;;;;0.60;0.60;;;15.60;51.60;;;;;;5136093;27;20201;-53
2023/03/10 03:09:38;;;;;;;0.60;0.60;;;15.60;51.70;;;;;;5136254;27;20199;-51
2023/03/10 03:12:03;;;;;;;0.55;0.55;;;15.60;51.70;;;;;;5134995;27;20619;-53
2023/03/10 03:14:29;;;;;;;0.60;0.60;;;15.60;51.70;;;;;;5135753;27;20194;-54
2023/03/10 03:16:54;;;;;;;0.70;0.70;;;15.60;51.70;;;;;;5135727;27;20221;-56
2023/03/10 03:19:20;;;;;;;0.50;0.50;;;15.60;51.70;;;;;;5135323;27;20218;-54
2023/03/10 03:21:48;;;;;;;0.90;0.90;;;15.60;51.70;;;;;;5135316;27;20195;-53
2023/03/10 03:24:17;;;;;;;0.60;0.60;;;15.60;51.70;;;;;;5135867;27;20216;-55
2023/03/10 03:26:43;;;;;;;0.60;0.60;;;15.60;51.70;;;;;;5134576;27;20172;-55
2023/03/10 03:29:10;;;;;;;0.60;0.60;;;15.60;51.70;;;;;;5135624;27;20510;-55
2023/03/10 03:31:36;;;;;;;0.60;0.60;;;15.60;51.70;;;;;;5135805;27;20627;-54
2023/03/10 03:34:03;;;;;;;0.50;0.50;;;15.50;51.70;;;;;;5113993;27;20662;-54
2023/03/10 03:36:28;;;;;;;0.70;0.70;;;15.50;51.70;;;;;;5113984;28;20173;-54
2023/03/10 03:38:54;;;;;;;0.50;0.50;;;15.50;51.70;;;;;;5114523;28;20188;-54
2023/03/10 03:41:19;;;;;;;0.52;0.52;;;15.50;51.70;;;;;;5114096;28;20165;-56
2023/03/10 03:43:45;;;;;;;0.60;0.60;;;15.50;51.70;;;;;;5114380;28;20200;-55
2023/03/10 03:46:10;;;;;;;0.60;0.60;;;15.50;51.70;;;;;;5114680;28;20561;-55
2023/03/10 03:48:37;;;;;;;0.40;0.40;;;15.50;51.70;;;;;;5113876;28;20196;-55
2023/03/10 03:51:02;;;;;;;0.50;0.50;;;15.50;51.70;;;;;;5114552;28;20554;-54
2023/03/10 03:53:28;;;;;;;0.50;0.50;;;15.50;51.70;;;;;;5113898;28;20623;-55
2023/03/10 03:55:54;;;;;;;0.40;0.40;;;15.50;51.70;;;;;;5114349;28;20184;-54
2023/03/10 03:58:19;;;;;;;0.40;0.40;;;15.50;51.70;;;;;;5114421;28;20214;-53
2023/03/10 04:00:45;;;;;;;0.70;0.70;;;15.50;51.80;;;;;;5113621;28;20173;-52
2023/03/10 04:03:10;;;;;;;0.70;0.70;;;15.40;51.70;;;;;;5114554;28;20215;-52
2023/03/10 04:05:36;;;;;;;0.85;0.65;;;15.40;51.70;;;;;;5114479;28;20186;-51
2023/03/10 04:08:01;;;;;;;0.60;0.60;;;15.40;51.70;;;;;;5113443;28;20269;-53
2023/03/10 04:10:27;;;;;;;0.60;0.60;;;15.40;52.00;;;;;;5114268;28;20180;-53
2023/03/10 04:12:53;;;;;;;0.50;0.50;;;15.40;51.80;;;;;;5113942;28;20173;-50
2023/03/10 04:15:19;;;;;;;0.68;0.68;;;15.40;51.70;;;;;;5113706;28;20177;-53
2023/03/10 04:17:44;;;;;;;0.60;0.60;;;15.40;51.80;;;;;;5114207;28;20657;-54
2023/03/10 04:20:19;;;;;;;0.55;0.55;;;15.40;51.80;;;;;;5114131;28;20544;-53
2023/03/10 04:22:44;;;;;;;0.63;0.63;;;15.40;52.40;;;;;;5112892;28;20270;-50
2023/03/10 04:25:10;;;;;;;0.47;0.47;;;15.40;51.80;;;;;;5114228;28;20188;-53
2023/03/10 04:27:35;;;;;;;0.65;0.65;;;15.40;51.80;;;;;;5113917;28;20246;-49
2023/03/10 04:30:01;;;;;;;0.40;0.40;;;15.40;51.80;;;;;;5113106;28;20542;-50
2023/03/10 04:32:26;;;;;;;0.60;0.60;;;15.40;51.80;;;;;;5113979;28;20184;-51
2023/03/10 04:34:52;;;;;;;0.80;0.80;;;15.30;51.80;;;;;;5113584;28;20173;-51
2023/03/10 04:37:19;;;;;;;0.50;0.50;;;15.30;51.80;;;;;;5113141;28;20165;-54
2023/03/10 04:39:44;;;;;;;0.65;0.50;;;15.30;51.80;;;;;;5113555;28;20238;-50
2023/03/10 04:42:10;;;;;;;0.50;0.50;;;15.30;51.80;;;;;;5113585;28;20200;-53
2023/03/10 04:44:35;;;;;;;0.47;0.47;;;15.30;51.80;;;;;;5113132;28;20668;-50
2023/03/10 04:47:01;;;;;;;0.50;0.50;;;15.20;51.70;;;;;;5113434;28;20926;-51
2023/03/10 04:49:26;;;;;;;0.47;0.47;;;15.30;51.80;;;;;;5113120;28;20733;-54
2023/03/10 04:51:52;;;;;;;0.50;0.50;;;15.30;51.80;;;;;;5112445;28;20191;-54
2023/03/10 04:54:17;;;;;;;0.32;0.32;;;15.30;51.80;;;;;;5113429;28;20176;-52
2023/03/10 04:56:43;;;;;;;0.70;0.70;;;15.20;51.70;;;;;;5112259;28;20230;-50
2023/03/10 04:59:08;;;;;;;0.50;0.50;;;15.30;52.40;;;;;;5113613;28;20226;-54
2023/03/10 05:01:34;;;;;;;0.50;0.50;;;15.30;51.80;;;;;;5113532;28;20185;-49
2023/03/10 05:04:00;;;;;;;0.52;0.52;;;15.20;51.70;;;;;;5112349;28;20859;-53
2023/03/10 05:06:25;;;;;;;0.40;0.40;;;15.20;51.70;;;;;;5113406;28;20184;-50
2023/03/10 05:08:51;;;;;;;0.50;0.50;;;15.20;51.70;;;;;;5112985;28;20181;-52
2023/03/10 05:11:16;;;;;;;0.40;0.40;;;15.20;51.70;;;;;;5112615;28;20169;-51
2023/03/10 05:13:42;;;;;;;0.40;0.40;;;15.20;51.80;;;;;;5112949;28;20583;-53
2023/03/10 05:16:16;;;;;;;0.60;0.45;;;15.20;51.80;;;;;;5113278;28;20741;-53
2023/03/10 05:18:41;;;;;;;0.47;0.47;;;15.20;51.80;;;;;;5112365;28;20587;-52
2023/03/10 05:21:07;;;;;;;0.32;0.32;;;15.20;51.80;;;;;;5113282;28;20278;-51
2023/03/10 05:23:32;;;;;;;0.52;0.52;;;15.20;51.80;;;;;;5112849;28;20240;-53
2023/03/10 05:26:02;;;;;;;0.50;0.50;;;15.20;51.80;;;;;;5111851;28;20181;-50
2023/03/10 05:28:27;;;;;;;0.40;0.40;;;15.20;51.80;;;;;;5113361;28;20252;-51
2023/03/10 05:30:53;;;;;;;0.80;0.40;;;15.10;52.50;;;;;;5112880;28;20253;-51
2023/03/10 05:33:18;;;;;;;0.60;0.60;;;15.10;51.80;;;;;;5112499;28;20256;-52
2023/03/10 05:35:44;;;;;;;0.32;0.32;;;15.10;51.90;;;;;;5112805;28;20169;-55
2023/03/10 05:38:09;;;;;;;0.40;0.40;;;15.10;51.90;;;;;;5113040;28;20161;-52
2023/03/10 05:40:35;;;;;;;0.50;0.50;;;15.10;51.80;;;;;;5112189;28;20222;-53
2023/03/10 05:43:01;;;;;;;0.47;0.47;;;15.10;51.90;;;;;;5112778;28;20209;-55
2023/03/10 05:45:27;;;;;;;0.43;0.43;;;15.10;51.90;;;;;;5113174;28;20173;-54
2023/03/10 05:47:52;;;;;;;0.38;0.38;;;15.10;51.90;;;;;;5111955;28;20260;-54
2023/03/10 05:50:18;;;;;;;0.45;0.45;;;15.10;51.90;;;;;;5113003;28;20173;-49
2023/03/10 05:52:43;;;;;;;0.50;0.50;;;15.10;51.90;;;;;;5112674;28;20173;-54
2023/03/10 05:55:14;;;;;;;0.50;0.50;;;15.00;51.80;;;;;;5112087;28;20181;-51
2023/03/10 05:57:40;;;;;;;0.50;0.50;;;15.00;51.80;;;;;;5113013;28;20205;-55
2023/03/10 06:00:09;;;;;;;0.47;0.47;;;15.10;51.90;;;;;;5112872;28;20181;-53
2023/03/10 06:02:35;;;;;;;0.45;0.45;;;15.10;51.90;;;;;;5116666;28;20698;-54
2023/03/10 06:05:01;;;;;;;0.40;0.40;;;15.10;51.90;;;;;;5116381;28;20181;-55
2023/03/10 06:07:26;;;;;;;0.40;0.40;;;15.10;51.80;;;;;;5116087;28;20180;-53
2023/03/10 06:09:53;;;;;;;0.50;0.50;;;15.10;51.80;;;;;;5116528;28;20226;-53
2023/03/10 06:12:19;;;;;;;0.40;0.40;;;15.10;51.80;;;;;;5116771;28;20519;-52
2023/03/10 06:14:45;;;;;;;0.30;0.30;;;15.10;51.70;;;;;;5115669;28;20180;-53
2023/03/10 06:17:10;;;;;;;0.40;0.40;;;15.20;51.70;;;;;;5116495;28;20169;-55
2023/03/10 06:19:36;;;;;;;0.25;0.25;;;15.20;51.70;;;;;;5116764;28;20176;-53
2023/03/10 06:22:01;;;;;;;0.40;0.40;;;15.10;51.70;;;;;;5115274;28;20221;-54
2023/03/10 06:24:27;;;;;;;0.50;0.50;;;15.10;51.70;;;;;;5116392;28;20577;-54
2023/03/10 06:26:53;;;;;;;0.30;0.30;;;15.10;51.70;;;;;;5116125;28;20640;-53
2023/03/10 06:29:18;;;;;;;0.40;0.40;;;15.10;51.70;;;;;;5115685;28;20204;-55
2023/03/10 06:31:44;;;;;;;0.32;0.32;;;15.10;51.70;;;;;;5115833;28;20254;-53
2023/03/10 06:34:09;;;;;;;0.30;0.30;;;15.10;51.70;;;;;;5116063;28;20188;-51
2023/03/10 06:36:37;;;;;;;0.50;0.50;;;15.10;51.80;;;;;;5115207;28;20166;-54
2023/03/10 06:39:03;;;;;;;0.63;0.63;;;15.10;51.80;;;;;;5115870;27;20185;-56
2023/03/10 06:41:28;;;;;;;0.40;0.40;;;15.10;51.90;;;;;;5116101;28;20173;-51
2023/03/10 06:43:54;;;;;;;0.30;0.30;;;15.10;51.90;;;;;;5115020;28;20220;-56
2023/03/10 06:46:19;;;;;;;0.40;0.40;;;15.10;51.80;;;;;;5115975;28;20177;-55
2023/03/10 06:48:45;;;;;;;0.50;0.50;;;15.10;52.40;;;;;;5115533;28;20180;-55
2023/03/10 06:51:13;;;;;;;0.77;0.47;;;15.10;51.70;;;;;;5114945;28;20200;-55
2023/03/10 06:53:39;;;;;;;0.40;0.40;;;15.10;51.70;;;;;;5115730;28;20180;-52
2023/03/10 06:56:06;;;;;;;0.30;0.30;;;15.10;51.70;;;;;;5115587;28;20173;-54
2023/03/10 06:58:32;;;;;;;0.40;0.40;;;15.20;51.70;;;;;;5114960;28;20513;-55
2023/03/10 07:00:58;;;;;;;0.40;0.40;;;15.10;51.70;;;;;;5114227;28;20173;-55
2023/03/10 07:03:25;;;;;;;0.40;0.40;;;15.20;51.70;;;;;;5114910;28;20572;-56
2023/03/10 07:05:51;;;;;;;0.43;0.43;;;15.20;51.70;;;;;;5115287;28;20180;-56
2023/03/10 07:08:16;;;;;;;0.30;0.30;;;15.30;51.70;;;;;;5115647;28;20252;-53
2023/03/10 07:10:42;;;;;;;0.30;0.30;;;15.30;51.50;;;;;;5114317;28;20273;-54
2023/03/10 07:13:09;;;;;;;1.13;0.40;;;15.50;51.30;;;;;;5115760;28;20583;-54
2023/03/10 07:15:35;;;;;;;0.30;0.30;;;15.60;51.20;;;;;;5115386;28;20169;-53
2023/03/10 07:18:00;;;;;;;0.30;0.30;;;15.80;51.00;;;;;;5114414;28;20176;-55
2023/03/10 07:20:26;;;;;;;0.50;0.50;;;16.00;50.80;;;;;;5115269;28;20173;-55
2023/03/10 07:22:51;;;;;;;0.20;0.20;;;16.10;50.50;;;;;;5114613;28;20596;-55
2023/03/10 07:25:17;;;;;;;0.32;0.32;;;16.30;50.30;;;;;;5114306;28;20642;-54
2023/03/10 07:27:43;;;;;;;0.40;0.40;;;16.50;50.10;;;;;;5114784;28;20185;-53
2023/03/10 07:30:09;;;;;;;0.30;0.30;;;16.80;49.70;;;;;;5115095;28;20172;-50
2023/03/10 07:32:34;;;;;;;0.40;0.40;;;16.90;49.40;;;;;;5113124;28;20169;-51
2023/03/10 07:35:00;;;;;;;0.40;0.40;;;16.90;49.40;;;;;;5114689;28;20271;-51
2023/03/10 07:37:25;;;;;;;0.30;0.30;;;17.00;49.20;;;;;;5115094;28;20196;-53
2023/03/10 07:39:53;;;;;;;0.20;0.20;;;17.10;49.20;;;;;;5113600;28;20274;-51
2023/03/10 07:42:18;;;;;;;0.30;0.30;;;17.20;49.70;;;;;;5114921;28;20173;-54
2023/03/10 07:44:44;;;;;;;0.40;0.40;;;17.20;48.90;;;;;;5114583;28;20229;-54
2023/03/10 07:47:09;;;;;;;0.40;0.40;;;17.20;48.90;;;;;;5113861;28;20169;-54
2023/03/10 07:49:35;;;;;;;0.30;0.30;;;17.20;48.90;;;;;;5114565;28;20173;-53
2023/03/10 07:52:01;;;;;;;0.30;0.30;;;17.20;48.90;;;;;;5114304;28;20528;-53
2023/03/10 07:54:26;;;;;;;0.38;0.38;;;17.20;48.90;;;;;;5113715;28;20169;-50
2023/03/10 07:56:52;;;;;;;0.30;0.30;;;17.20;48.90;;;;;;5114402;28;20173;-53
2023/03/10 07:59:17;;;;;;;0.30;0.30;;;17.20;49.10;;;;;;5114660;28;20177;-54
2023/03/10 08:01:43;;;;;;;0.30;0.30;;;17.20;49.10;;;;;;5113509;28;20199;-52
2023/03/10 08:04:11;;;;;;;0.30;0.30;;;17.20;49.10;;;;;;5114335;28;20661;-54
2023/03/10 08:06:36;;;;;;;0.30;0.30;;;17.20;49.20;;;;;;5113762;28;20516;-55
2023/03/10 08:09:02;;;;;;;0.22;0.22;;;17.10;49.20;;;;;;5113962;28;20219;-51
2023/03/10 08:11:27;;;;;;;0.20;0.20;;;17.20;49.90;;;;;;5114408;28;20207;-51
2023/03/10 08:13:53;;;;;;;0.30;0.30;;;17.20;49.30;;;;;;5113244;28;20238;-54
2023/03/10 08:16:19;;;;;;;0.30;0.30;;;17.10;49.20;;;;;;5114073;28;20639;-55
2023/03/10 08:18:45;;;;;;;0.20;0.20;;;17.10;49.40;;;;;;5113688;28;20211;-53
2023/03/10 08:21:10;;;;;;;0.25;0.25;;;17.10;49.40;;;;;;5113543;28;20210;-51
2023/03/10 08:23:36;;;;;;;0.20;0.20;;;17.00;49.40;;;;;;5113265;28;20225;-52
2023/03/10 08:26:06;;;;;;;0.40;0.40;;;17.00;49.60;;;;;;5113903;28;20169;-53
2023/03/10 08:28:33;;;;;;;0.30;0.30;;;17.00;49.70;;;;;;5113212;28;20250;-51
2023/03/10 08:30:59;;;;;;;0.30;0.30;;;16.90;49.70;;;;;;5113557;28;20550;-49
2023/03/10 08:33:27;;;;;;;0.20;0.20;;;16.90;49.80;;;;;;5113826;28;20169;-53
2023/03/10 08:36:06;;;;;;;0.30;0.30;;;16.90;49.80;;;;;;5113084;28;20256;-66
2023/03/10 08:38:31;;;;;;;0.50;0.40;;;17.00;49.80;;;;;;5113747;28;20657;-66
2023/03/10 08:40:57;;;;;;;1.17;0.60;;;17.00;50.00;;;;;;5113503;28;20177;-66
2023/03/10 08:43:22;;;;;;;0.63;0.55;;;17.00;50.20;;;;;;5112939;28;20262;-63
2023/03/10 08:45:48;;;;;;;0.50;0.40;;;17.00;50.20;;;;;;5113545;28;20187;-63
2023/03/10 08:48:13;;;;;;;0.90;0.68;;;17.00;50.30;;;;;;5113837;28;20177;-62
2023/03/10 08:50:39;;;;;;;1.08;0.63;;;17.10;50.40;;;;;;5113112;28;20172;-62
2023/03/10 08:53:05;;;;;;;0.75;0.50;;;17.00;50.70;;;;;;5113422;28;20181;-62
2023/03/10 08:55:30;;;;;;;2.17;0.75;;;17.10;50.90;;;;;;5113452;28;20253;-63
2023/03/10 08:57:56;;;;;;;1.58;0.50;;;17.10;51.10;;;;;;5112629;28;20173;-64
2023/03/10 09:00:22;;;;;;;3.38;0.60;;;17.20;51.00;;;;;;5113557;28;20174;-64
2023/03/10 09:02:48;;;;;;;3.13;0.75;;;17.20;51.00;;;;;;5112787;28;20300;-65
2023/03/10 09:05:13;;;;;;;1.77;0.60;;;17.20;51.10;;;;;;5113410;28;20259;-65
2023/03/10 09:07:39;;;;;;;1.95;0.50;;;17.20;51.10;;;;;;5113324;28;20256;-64
2023/03/10 09:10:04;;;;;;;1.48;0.40;;;17.10;51.10;;;;;;5111890;28;20193;-64
2023/03/10 09:12:30;;;;;;;1.30;0.55;;;17.10;51.20;;;;;;5113221;28;20184;-64
2023/03/10 09:14:56;;;;;;;0.68;0.32;;;17.00;51.40;;;;;;5112866;28;20173;-65
2023/03/10 09:17:21;;;;;;;2.33;0.60;;;16.90;51.60;;;;;;5112674;28;20165;-65
2023/03/10 09:19:47;;;;;;;0.30;0.30;;;16.80;51.70;;;;;;5112819;28;20542;-65
2023/03/10 09:22:12;;;;;;;2.15;0.52;;;16.80;51.90;;;;;;5112886;28;20694;-64
2023/03/10 09:24:38;;;;;;;1.25;0.47;;;16.70;52.00;;;;;;5112595;28;20181;-64
2023/03/10 09:27:03;;;;;;;1.55;0.50;;;16.70;52.60;;;;;;5112967;28;20165;-64
2023/03/10 09:29:31;;;;;;;1.20;0.50;;;16.70;52.00;;;;;;5113088;28;20264;-65
2023/03/10 09:31:56;;;;;;;0.47;0.47;;;16.70;52.00;;;;;;5112041;28;20503;-65
2023/03/10 09:34:23;;;;;;;1.67;0.57;;;16.70;52.00;;;;;;5114460;28;20173;-65
2023/03/10 09:36:48;;;;;;;0.40;0.40;;;16.70;52.10;;;;;;5117098;28;20181;-65
2023/03/10 09:39:14;;;;;;;0.40;0.40;;;16.60;51.90;;;;;;5116649;28;20241;-64
2023/03/10 09:42:03;;;;;;;1.27;0.47;;;16.60;52.20;;;;;;5117206;28;20594;-66
2023/03/10 09:44:52;;;;;;;1.23;0.52;;;16.60;52.30;;;;;;5087851;28;20246;-65
2023/03/10 09:47:44;;;;;;;2.00;0.45;;;16.60;52.40;;;;;;5115504;28;20201;-64
2023/03/10 09:50:31;;;;;;;1.35;1.00;;;16.50;52.40;;;;;;5088005;28;20310;-63
2023/03/10 09:53:14;;;;;;;1.50;0.45;;;16.50;52.30;;;;;;5115867;28;20545;-63
2023/03/10 09:55:42;;;;;;;2.80;0.70;;;16.50;52.40;;;;;;5115820;28;20665;-63
2023/03/10 09:58:31;;;;;;;2.40;0.52;;;16.50;52.40;;;;;;5099043;28;20562;-64
2023/03/10 10:00:58;;;;;;;4.15;1.05;;;16.60;52.40;;;;;;5114759;28;20181;-65
2023/03/10 10:03:42;;;;;;;0.50;0.50;;;16.60;52.40;;;;;;5117027;28;20212;-64
2023/03/10 10:06:13;;;;;;;0.50;0.50;;;16.60;52.50;;;;;;5116244;28;20173;-64
2023/03/10 10:08:47;;;;;;;2.40;0.50;;;16.60;52.40;;;;;;5099204;28;20185;-63
2023/03/10 10:11:14;;;;;;;1.67;0.50;;;16.50;52.50;;;;;;5098975;28;20176;-63
2023/03/10 10:13:40;;;;;;;1.83;0.70;;;16.50;52.70;;;;;;5116114;28;20184;-63
2023/03/10 10:16:25;;;;;;;0.55;0.55;;;16.50;52.80;;;;;;5114947;28;20169;-65
2023/03/10 10:18:58;;;;;;;0.95;0.52;;;16.40;52.90;;;;;;5116131;28;20635;-65
2023/03/10 10:21:47;;;;;;;2.85;0.50;;;16.40;52.90;;;;;;5114564;28;20169;-66
2023/03/10 10:24:12;;;;;;;2.95;0.70;;;16.30;52.90;;;;;;5114740;28;20347;-66
2023/03/10 10:26:38;;;;;;;0.50;0.50;;;16.20;52.90;;;;;;5114776;28;20573;-66
2023/03/10 10:29:22;;;;;;;1.20;0.50;;;16.20;53.00;;;;;;5118854;27;20692;-67
2023/03/10 10:32:06;;;;;;;2.75;0.57;;;16.10;53.00;;;;;;5118163;27;20183;-67
2023/03/10 10:34:32;;;;;;;0.40;0.40;;;16.10;53.00;;;;;;5136230;27;20180;-67
2023/03/10 10:36:58;;;;;;;0.77;0.52;;;16.10;53.10;;;;;;5127416;27;20165;-66
2023/03/10 10:39:31;;;;;;;1.55;0.47;;;16.10;53.20;;;;;;5115573;28;20180;-66
2023/03/10 10:42:25;;;;;;;0.45;0.45;;;16.10;53.20;;;;;;5114043;28;20176;-66
2023/03/10 10:44:58;;;;;;;0.95;0.40;;;16.00;53.20;;;;;;5110908;27;20284;-66
2023/03/10 10:47:45;;;;;;;0.60;0.60;;;16.10;53.00;;;;;;5135987;27;20250;-65
2023/03/10 10:50:24;;;;;;;0.52;0.52;;;16.10;53.20;;;;;;5135550;27;20520;-65
2023/03/10 10:52:52;;;;;;;1.80;0.60;;;16.10;53.00;;;;;;5136358;27;20165;-66
2023/03/10 10:55:29;;;;;;;0.50;0.50;;;16.10;52.90;;;;;;5118519;27;20263;-66
2023/03/10 10:57:59;;;;;;;0.95;0.50;;;16.20;52.80;;;;;;5136265;27;20199;-67
2023/03/10 11:00:31;;;;;;;0.60;0.50;;;16.30;52.70;;;;;;5136429;27;20175;-67
2023/03/10 11:02:57;;;;;;;0.47;0.47;;;16.30;52.60;;;;;;5123859;27;20265;-67
2023/03/10 11:05:24;;;;;;;1.10;0.40;;;16.40;52.50;;;;;;5115544;28;20177;-66
2023/03/10 11:07:49;;;;;;;1.10;0.60;;;16.40;52.50;;;;;;5115390;28;20184;-66
2023/03/10 11:10:17;;;;;;;1.85;0.50;;;16.40;52.40;;;;;;5113574;28;20173;-65
2023/03/10 11:13:03;;;;;;;1.92;0.50;;;16.40;52.40;;;;;;5115138;28;20181;-64
2023/03/10 11:15:37;;;;;;;0.30;0.30;;;16.30;52.30;;;;;;5115203;28;20173;-64
2023/03/10 11:18:02;;;;;;;0.30;0.30;;;16.30;52.50;;;;;;5096153;28;20181;-64
2023/03/10 11:20:47;;;;;;;0.40;0.40;;;16.30;52.60;;;;;;5115438;28;20222;-64
2023/03/10 11:23:25;;;;;;;0.55;0.50;;;16.30;52.60;;;;;;5097164;28;20771;-64
2023/03/10 11:25:53;;;;;;;1.15;0.60;;;16.30;52.80;;;;;;5113137;28;20184;-65
2023/03/10 11:28:25;;;;;;;1.55;0.63;;;16.30;52.80;;;;;;5113866;28;20655;-65
2023/03/10 11:30:59;;;;;;;0.50;0.50;;;16.40;52.80;;;;;;5114173;28;20210;-64
2023/03/10 11:33:26;;;;;;;0.73;0.40;;;16.40;52.80;;;;;;5115252;28;20252;-66
2023/03/10 11:35:58;;;;;;;0.88;0.40;;;16.40;52.70;;;;;;5114397;27;20177;-64
2023/03/10 11:38:36;;;;;;;0.30;0.30;;;16.40;52.70;;;;;;5117092;27;20184;-64
2023/03/10 11:41:26;;;;;;;0.52;0.40;;;16.40;52.80;;;;;;5135475;27;20222;-65
2023/03/10 11:44:07;;;;;;;0.60;0.60;;;16.40;52.80;;;;;;5123888;27;20602;-64
2023/03/10 11:46:32;;;;;;;0.70;0.50;;;16.40;52.80;;;;;;5134707;27;20176;-66
2023/03/10 11:49:12;;;;;;;1.17;0.60;;;16.40;52.90;;;;;;5134935;27;20176;-66
2023/03/10 11:51:49;;;;;;;0.40;0.40;;;16.20;52.90;;;;;;5134733;27;20172;-65
2023/03/10 11:54:20;;;;;;;1.38;0.50;;;16.30;53.00;;;;;;5133125;27;20634;-64
2023/03/10 11:56:46;;;;;;;2.05;0.60;;;16.20;53.00;;;;;;5133147;27;20172;-65
2023/03/10 11:59:20;;;;;;;2.55;0.57;;;16.20;52.90;;;;;;5131713;27;20595;-66
2023/03/10 12:01:45;;;;;;;2.80;1.25;;;16.20;52.80;;;;;;5116740;27;20252;-66
2023/03/10 12:04:17;;;;;;;2.22;0.60;;;16.20;52.80;;;;;;5134730;27;20303;-65
2023/03/10 12:07:10;;;;;;;0.98;0.43;;;16.20;52.70;;;;;;5115385;27;20539;-65
2023/03/10 12:09:41;;;;;;;1.08;0.40;;;16.30;52.80;;;;;;5134509;27;20165;-64
2023/03/10 12:12:12;;;;;;;2.10;0.68;;;16.30;52.80;;;;;;5133114;27;20176;-64
2023/03/10 12:14:38;;;;;;;1.65;0.50;;;16.30;52.80;;;;;;5115433;27;20698;-65
2023/03/10 12:17:04;;;;;;;0.70;0.50;;;16.30;52.80;;;;;;5115437;27;20282;-65
2023/03/10 12:20:13;;;;;;;1.02;0.70;;;16.20;52.80;;;;;;5069923;28;20603;-65
2023/03/10 12:22:49;;;;;;;0.40;0.40;;;16.30;52.90;;;;;;5068600;28;20665;-64
2023/03/10 12:25:27;;;;;;;0.68;0.47;;;16.30;52.90;;;;;;5068631;28;20174;-64
2023/03/10 12:28:27;;;;;;;1.05;0.73;;;16.30;52.80;;;;;;5068662;28;20181;-67
2023/03/10 12:31:00;;;;;;;1.58;0.70;;;16.30;52.90;;;;;;5069296;28;20235;-65
2023/03/10 12:33:41;;;;;;;3.00;0.60;;;16.40;52.80;;;;;;5068525;28;20266;-64
2023/03/10 12:36:11;;;;;;;1.17;0.50;;;16.30;52.80;;;;;;5071613;28;20174;-65
2023/03/10 12:39:01;;;;;;;2.08;0.73;;;16.30;52.80;;;;;;5088287;28;20300;-65
2023/03/10 12:41:27;;;;;;;1.45;0.77;;;16.30;53.00;;;;;;5088961;28;20617;-64
2023/03/10 12:43:52;;;;;;;2.30;0.93;;;16.30;53.00;;;;;;5089345;28;20180;-65
2023/03/10 12:46:23;;;;;;;0.70;0.55;;;16.30;52.90;;;;;;5089604;28;20170;-64
2023/03/10 12:48:52;;;;;;;2.40;0.52;;;16.30;53.00;;;;;;5087286;28;20202;-64
2023/03/10 12:51:20;;;;;;;3.10;0.70;;;16.30;53.00;;;;;;5071820;28;20243;-64
2023/03/10 12:53:55;;;;;;;2.63;0.70;;;16.30;53.00;;;;;;5088865;28;20177;-64